NCAR-RAP Real-Time Weather Data

Output produced by METARs form (17 December 2018  15:17 UTC)
found at http://weather.rap.ucar.edu/surface/
 
RJTY 171456Z AUTO 28006KT 10SM CLR 06/03 A2973 RMK AO2 SLP074 T00570029 401331005 50002 FZRANO $
RJTY 171356Z AUTO 00000KT 10SM CLR 06/03 A2973 RMK AO2 SLP075 T00610029 FZRANO $
RJTY 171256Z AUTO 27004KT 10SM FEW090 06/03 A2973 RMK AO2 SLP077 T00630031 FZRANO $
RJTY 171156Z AUTO 28007KT 10SM BKN090 07/03 A2972 RMK AO2 SLP073 T00680034 10131 20068 52010 FZRANO $
RJTY 171056Z AUTO 27006KT 10SM SCT075 08/04 A2972 RMK AO2 SLP073 T00760040 FZRANO $
RJTY 170956Z AUTO 00000KT 10SM FEW070 08/02 A2971 RMK AO2 SLP069 T00780021 FZRANO $
RJTY 170856Z AUTO 00000KT 10SM BKN070 BKN085 10/03 A2969 RMK AO2 SLP062 T01020028 52018 FZRANO $
RJTY 170756Z AUTO 00000KT 10SM OVC065 11/02 A2968 RMK AO2 SLP058 T01080024 FZRANO $
RJTY 170656Z AUTO 00000KT 10SM FEW060 12/02 A2966 RMK AO2 SLP052 T01190021 FZRANO $
RJTY 170556Z AUTO 16005KT 10SM CLR 13/02 A2964 RMK AO2 SLP044 60000 T01310020 10133 20031 55009 FZRANO $
RJTY 170456Z AUTO 16004KT 10SM CLR 13/03 A2963 RMK AO2 SLP041 T01300025 FZRANO $
RJTY 170356Z AUTO 00000KT 10SM CLR 12/02 A2964 RMK AO2 SLP046 T01220024 FZRANO $
RJTY 170256Z AUTO 01003KT 10SM CLR 11/01 A2967 RMK AO2 SLP056 60000 T01100010 57050 FZRANO $
RJTY 170156Z AUTO 02005KT 10SM FEW110 08/02 A2972 RMK AO2 PRESFR SLP073 T00830023 FZRANO $
RJTY 170056Z COR 02004KT 9SM SCT090 BKN120 05/01 A2978 RMK AO2A SLP095 P0000 T00460014 FZRANO $ COR 0113
RJTY 162356Z 01010KT 10SM FEW005 SCT010 BKN075 03/03 A2982 RMK AO2A RAE56 SLP109 P0003 60021 70021 T00330027 10043 20023 56017 FZRANO $
RJTY 162336Z COR 06005KT 5SM -RA SCT023 BKN055 04/04 A2981 RMK AO2A SLP105 FZRANO $ COR 2352
RJTY 162256Z 00000KT 5SM -RA BR BKN035 04/04 A2982 RMK AO2A SLP109 P0004 T00390035 FZRANO $
RJTY 162156Z AUTO 00000KT 9SM -RA BKN041 04/03 A2985 RMK AO2 SLP119 P0004 T00360029 FZRANO $
RJTY 162056Z AUTO 02004KT 10SM -RA OVC049 04/02 A2987 RMK AO2 RAE10UPB10E36RAB36E39UPB39E43RAB43 SLP125 P0009 60010 T00360024 57022 FZRANO $
RJTY 161956Z AUTO 00000KT 10SM -RA FEW035 03/01 A2989 RMK AO2 UPB08E16RAB16 SLP132 P0001 T00310010 FZRANO $
RJTY 161953Z AUTO 00000KT 10SM -RA FEW031 03/01 A2989 RMK AO2 UPB08E16RAB16 SLP132 FZRANO $
RJTY 161856Z AUTO 21003KT 10SM CLR 03/00 A2990 RMK AO2 RAB1756E20 SLP134 P0000 T00280000 FZRANO $
RJTY 161756Z 00000KT 10SM CLR 02/M01 A2994 RMK AO2A RAB39E41 SLP149 P0000 60000 T00231010 10023 21005 57016 FZRANO $
RJTY 161739Z COR 00000KT 10SM -RA SCT130 02/M01 A2995 RMK AO2 RAB39 SLP152 FZRANO $ COR 1750
RJTY 161656Z AUTO 00000KT 10SM BKN140 01/M02 A2995 RMK AO2 SLP152 T00081023 FZRANO $
RJTY 161556Z AUTO 34003KT 10SM SCT090 00/M03 A2997 RMK AO2 SLP160 T10031028 FZRANO $
RJTY 161456Z AUTO 00000KT 10SM FEW090 00/M03 A2999 RMK AO2 SLP166 T00021030 400721044 57030 FZRANO $
RJTY 161356Z AUTO 27004KT 10SM BKN085 01/M02 A3002 RMK AO2 SLP177 T00141022 FZRANO $
RJTY 161256Z AUTO 00000KT 10SM CLR 02/M02 A3004 RMK AO2 SLP183 T00151023 FZRANO $
RJTY 161156Z AUTO 00000KT 10SM CLR 02/M03 A3008 RMK AO2 SLP198 T00171026 10066 20006 57022 FZRANO $
RJTY 161056Z AUTO 00000KT 10SM CLR 03/M02 A3010 RMK AO2 SLP204 T00261023 FZRANO $
RJTY 160956Z AUTO 00000KT 10SM CLR 03/M04 A3012 RMK AO2 SLP213 T00291037 FZRANO $
RJTY 160856Z AUTO 00000KT 10SM SCT180 05/M04 A3014 RMK AO2 SLP219 T00471036 57015 FZRANO $
RJTY 160756Z AUTO 00000KT 10SM CLR 05/M03 A3015 RMK AO2 SLP222 T00501035 FZRANO $
RJTY 160656Z AUTO 07004KT 10SM CLR 06/M03 A3019 RMK AO2 SLP236 T00601034 FZRANO $
RJTY 160556Z AUTO 07005KT 10SM SCT170 06/M04 A3019 RMK AO2 SLP235 60000 T00631036 10072 20029 57021 FZRANO $
RJTY 160456Z AUTO 07005KT 10SM SCT160 07/M03 A3020 RMK AO2 SLP238 T00701035 FZRANO $
RJTY 160356Z AUTO 03004KT 10SM FEW040 BKN050 BKN170 06/M03 A3022 RMK AO2 RAE0256 SLP245 P0000 T00611035 FZRANO $
RJTY 160257Z AUTO 04006KT 10SM SCT043 BKN055 BKN180 05/M04 A3025 RMK AO2 RAE56 SLP255 FZRANO $
RJTY 160256Z AUTO 02006KT 10SM -RA BKN043 BKN055 OVC180 05/M04 A3025 RMK AO2 RAB44 SLP255 P0000 60000 T00491044 57029 FZRANO $
RJTY 160244Z AUTO 02007KT 10SM -RA BKN043 OVC050 04/M05 A3026 RMK AO2 RAB44 SLP259 FZRANO $
RJTY 160156Z AUTO 04005KT 10SM BKN041 OVC048 05/M05 A3028 RMK AO2 SLP265 T00461047 FZRANO $
RJTY 160056Z AUTO 10003KT 10SM CLR 04/M04 A3032 RMK AO2 SLP279 T00431039 FZRANO $
RJTY 152356Z AUTO 00000KT 10SM OVC049 03/M03 A3034 RMK AO2 SLP286 T00281029 10028 21044 56009 FZRANO $
RJTY 151356Z AUTO 29005KT 10SM CLR 00/M04 A3039 RMK AO2 SLP302 T00021039 FZRANO $
RJTY 151256Z AUTO 28005KT 10SM CLR 01/M04 A3039 RMK AO2 SLP302 T00121041 FZRANO $
RJTY 151156Z AUTO 00000KT 10SM CLR 01/M04 A3038 RMK AO2 SLP298 T00071045 10082 20007 50006 FZRANO $
RJTY 151056Z AUTO 35007KT 10SM CLR 03/M06 A3039 RMK AO2 SLP302 T00311058 FZRANO $
RJTY 150956Z AUTO 02009KT 10SM CLR 03/M06 A3038 RMK AO2 SLP298 T00291060 FZRANO $
RJTY 150856Z AUTO 02010KT 10SM CLR 04/M06 A3036 RMK AO2 SLP292 T00421061 52024 FZRANO $
RJTY 150756Z AUTO 03009KT 10SM CLR 05/M06 A3034 RMK AO2 SLP285 T00541059 FZRANO $
RJTY 150656Z AUTO 04014KT 10SM CLR 07/M06 A3032 RMK AO2 SLP277 T00711059 FZRANO $
RJTY 150556Z AUTO 03017KT 10SM CLR 08/M06 A3029 RMK AO2 SLP266 T00821060 10095 20066 53004 FZRANO $
RJTY 150456Z AUTO 02018KT 10SM CLR 09/M06 A3028 RMK AO2 SLP263 T00891065 FZRANO $
RJTY 150356Z AUTO 02015G20KT 10SM CLR 09/M08 A3027 RMK AO2 PK WND 02026/09 SLP259 T00931078 FZRANO $
RJTY 150339Z AUTO 03017G26KT 10SM CLR 09/M08 A3027 RMK AO2 WSHFT 31 SLP259 FZRANO $
RJTY 150331Z AUTO 35018G24KT 10SM CLR 09/M08 A3027 RMK AO2 WSHFT 19 SLP259 FZRANO $